EST,Max TemperatureF,Mean TemperatureF,Min TemperatureF,Max Dew PointF,MeanDew PointF,Min DewpointF,Max Humidity, Mean Humidity, Min Humidity, Max Sea Level PressureIn, Mean Sea Level PressureIn, Min Sea Level PressureIn, Max VisibilityMiles, Mean VisibilityMiles, Min VisibilityMiles, Max Wind SpeedMPH, Mean Wind SpeedMPH, Max Gust SpeedMPH,PrecipitationIn, CloudCover, Events, WindDirDegrees
2013-2-1,30,24,19,12,6,1,51,43,32,30.07,29.80,29.60,10,10,10,21,12,31,0.00,1,,273
2013-2-2,26,20,15,9,4,1,58,47,40,30.22,30.13,30.04,10,10,10,14,7,24,0.00,0,,255
2013-2-3,24,22,21,19,18,18,86,82,74,29.93,29.82,29.72,10,8,5,7,7,,0.00,3,,10
2013-2-4,28,22,15,12,7,3,74,52,34,29.92,29.81,29.70,10,10,10,22,10,30,0.00,2,,279
2013-2-5,23,21,19,16,10,7,80,62,54,29.99,29.95,29.92,10,8,2,6,3,,0.00,4,,332
2013-2-6,,,,,,,,,,,,,,,,,,,,,,
2013-2-7,,,,,,,,,,,,,,,,,,,,,,
2013-2-8,32,26,17,28,23,12,93,85,74,29.80,29.63,29.47,0,0,0,34,23,51,0.00,8,,31
2013-2-9,23,18,14,16,10,0,86,68,49,30.16,29.79,29.46,10,4,0,30,21,44,0.01,2,,333
2013-2-10,33,22,10,9,-2,-6,53,43,27,30.37,30.28,30.16,10,10,10,13,9,21,0.03,0,,306
2013-2-11,24,,24,1,1,1,36,36,36,30.32,30.32,30.32,10,10,10,4,4,,0.00,0,,240
2013-2-12,33,,33,19,19,19,56,56,56,29.83,29.83,29.83,10,10,10,8,8,,0.00,0,,280
2013-2-13,39,36,32,25,23,19,75,62,49,29.85,29.75,29.67,10,10,10,8,4,,0.00,2,,341
2013-2-14,42,36,30,21,19,18,69,55,36,29.98,29.93,29.86,10,10,10,8,6,,0.00,0,,226
2013-2-15,48,38,28,32,28,21,93,72,50,30.00,29.97,29.92,10,7,1,10,5,20,0.00,2,,207
2013-2-16,33,32,28,28,25,16,93,75,59,29.92,29.81,29.65,10,7,1,17,9,23,0.01,5,,4
2013-2-17,28,22,17,19,8,0,86,59,34,29.66,29.48,29.38,10,4,1,25,17,40,0.00,4,,317
2013-2-18,28,26,23,0,0,0,36,32,29,30.00,29.99,29.97,10,10,10,22,19,33,0.00,0,,289
2013-2-19,,,,,,,,,,,,,,,,,,,,,,
2013-2-20,33,28,24,16,10,7,55,46,40,29.77,29.69,29.64,10,10,10,23,17,32,0.00,3,,282
2013-2-21,30,26,23,12,10,9,59,52,44,30.18,29.89,29.76,10,10,10,21,13,30,0.00,1,,296
2013-2-22,33,27,21,19,15,12,74,62,55,30.36,30.29,30.20,10,10,10,16,10,20,0.00,2,,351
2013-2-23,,,,,,,,,,,,,,,,,,,,,,
2013-2-24,,,,,,,,,,,,,,,,,,,,,,
2013-2-25,,,,,,,,,,,,,,,,,,,,,,
2013-2-26,,,,,,,,,,,,,,,,,,,,,,
2013-2-27,39,37,35,37,36,34,93,89,87,29.68,29.61,29.58,10,4,2,12,9,21,0.40,8,,24
2013-2-28,42,38,33,36,32,30,93,84,70,29.65,29.60,29.55,10,8,1,7,3,,0.00,7,,280